createdAt,value
2022-08-30T00:04:09.527Z,9.4
2022-08-30T00:09:10.362Z,9.6
2022-08-30T00:14:10.932Z,9.6
2022-08-30T00:29:33.863Z,9.7
2022-08-30T00:39:10.602Z,9.8
2022-08-30T00:44:21.426Z,10
2022-08-30T00:49:09.678Z,10.6
2022-08-30T00:54:09.600Z,10.6
2022-08-30T00:59:09.703Z,10.8
2022-08-30T01:04:09.721Z,11.3
2022-08-30T01:09:09.641Z,11.7
2022-08-30T01:14:13.199Z,11.8
2022-08-30T01:19:13.661Z,12.3
2022-08-30T01:24:09.801Z,12.3
2022-08-30T01:29:09.676Z,12.3
2022-08-30T01:34:09.601Z,12.3
2022-08-30T01:39:09.674Z,12.3
2022-08-30T01:44:09.713Z,11.9
2022-08-30T01:49:09.804Z,11.7
2022-08-30T01:54:10.606Z,11.7
2022-08-30T01:59:09.712Z,11.6
2022-08-30T02:04:09.683Z,11.6
2022-08-30T02:09:09.667Z,11.5
2022-08-30T02:14:09.644Z,11.5
2022-08-30T02:19:09.585Z,11.6
2022-08-30T02:24:09.707Z,11.9
2022-08-30T02:29:09.895Z,11.9
2022-08-30T02:34:09.602Z,11.9
2022-08-30T02:39:09.560Z,11.9
2022-08-30T02:44:09.620Z,11.9
2022-08-30T02:49:33.013Z,11.7
2022-08-30T02:54:09.566Z,11.7
2022-08-30T02:59:09.625Z,11.6
2022-08-30T03:04:09.575Z,11.4
2022-08-30T03:09:09.598Z,11.4
2022-08-30T03:14:09.607Z,11.4
2022-08-30T03:19:09.626Z,11.4
2022-08-30T03:24:09.689Z,11.4
2022-08-30T03:29:12.644Z,11.7
2022-08-30T03:34:09.625Z,11.7
2022-08-30T03:39:15.611Z,11.7
2022-08-30T03:44:09.646Z,11.7
2022-08-30T03:49:09.602Z,11.7
2022-08-30T03:54:09.607Z,11.7
2022-08-30T03:59:09.609Z,11.9
2022-08-30T04:04:09.883Z,11.8
2022-08-30T04:09:09.631Z,11.8
2022-08-30T04:14:09.686Z,11.8
2022-08-30T04:19:09.594Z,11.7
2022-08-30T04:24:09.802Z,11.6
2022-08-30T04:29:11.760Z,11.4
2022-08-30T04:34:09.659Z,11.4
2022-08-30T04:39:10.846Z,11.3
2022-08-30T04:44:14.296Z,11.3
2022-08-30T04:49:09.651Z,11.3
2022-08-30T04:54:09.756Z,11.3
2022-08-30T04:59:09.633Z,11.4
2022-08-30T05:04:09.688Z,11.6
2022-08-30T05:09:09.665Z,11.4
2022-08-30T05:14:09.723Z,11.4
2022-08-30T05:19:09.670Z,11.4
2022-08-30T05:24:09.907Z,11.6
2022-08-30T05:29:09.650Z,11.4
2022-08-30T05:34:09.663Z,11.4
2022-08-30T05:39:10.652Z,11.4
2022-08-30T05:44:09.758Z,11.4
2022-08-30T05:49:09.663Z,11.4
2022-08-30T05:54:09.657Z,11.4
2022-08-30T05:59:09.691Z,11.3
2022-08-30T06:04:09.657Z,11.4
2022-08-30T06:09:09.636Z,11.5
2022-08-30T06:14:09.837Z,11.5
2022-08-30T06:19:09.666Z,11.8
2022-08-30T06:24:09.815Z,11.8
2022-08-30T06:29:09.663Z,11.8
2022-08-30T06:34:09.639Z,11.8
2022-08-30T06:39:09.686Z,11.8
2022-08-30T06:44:09.723Z,11.2
2022-08-30T06:49:09.691Z,11.2
2022-08-30T06:54:12.660Z,10.8
2022-08-30T06:59:09.651Z,10.7
2022-08-30T07:04:09.715Z,10.5
2022-08-30T07:09:15.715Z,10.4
2022-08-30T07:14:09.676Z,9.9
2022-08-30T07:19:20.263Z,9.1
2022-08-30T07:24:10.818Z,8.9
2022-08-30T07:29:09.664Z,8.7
2022-08-30T07:34:09.688Z,8.7
2022-08-30T07:39:09.686Z,8.7
2022-08-30T07:44:09.797Z,9
2022-08-30T07:49:13.822Z,8.7
2022-08-30T07:54:09.776Z,8.8
2022-08-30T07:59:09.833Z,8.8
2022-08-30T08:04:12.774Z,8.8
2022-08-30T08:09:09.708Z,8.8
2022-08-30T08:19:13.863Z,8.8
2022-08-30T08:24:09.910Z,8.9
2022-08-30T15:09:13.984Z,2
2022-08-30T15:14:17.144Z,2.1
2022-08-30T15:19:13.860Z,2.1
2022-08-30T15:24:13.870Z,2.15
2022-08-30T15:29:13.908Z,2.1
2022-08-30T15:34:13.848Z,2.15
2022-08-30T15:39:14.175Z,2.1
2022-08-30T15:44:14.323Z,2.2
2022-08-30T15:49:14.113Z,2.2
2022-08-30T15:54:14.075Z,2.2
2022-08-30T15:59:13.888Z,2.1
2022-08-30T16:04:13.855Z,2.1
2022-08-30T16:09:13.896Z,2.1
2022-08-30T16:14:14.888Z,2.3
2022-08-30T16:19:13.916Z,2.1
2022-08-30T16:24:17.919Z,2.1
2022-08-30T16:29:13.952Z,2.3
2022-08-30T16:34:13.847Z,2.3
2022-08-30T16:39:13.938Z,2.3
2022-08-30T16:44:15.531Z,2.4
2022-08-30T16:49:13.865Z,2.4
2022-08-30T16:54:13.872Z,2.4
2022-08-30T16:59:14.117Z,2.3
2022-08-30T17:04:19.919Z,2.3
2022-08-30T17:14:15.740Z,2.6
2022-08-30T17:19:14.168Z,2.7
2022-08-30T17:24:14.103Z,2.7
2022-08-30T17:29:16.914Z,2.9
2022-08-30T17:34:14.165Z,3.3
2022-08-30T17:39:16.040Z,3.3
2022-08-30T17:44:13.933Z,3
2022-08-30T17:49:15.898Z,3.1
2022-08-30T17:54:14.185Z,3.1
2022-08-30T17:59:13.965Z,3.1
2022-08-30T18:04:13.874Z,3.1
2022-08-30T18:09:13.941Z,3.1
2022-08-30T18:14:16.939Z,3.2
2022-08-30T18:19:13.915Z,3.3
2022-08-30T18:24:14.945Z,3.3
2022-08-30T18:29:14.397Z,3.2
2022-08-30T18:34:16.917Z,3.3
2022-08-30T18:39:14.186Z,3.3
2022-08-30T18:44:27.612Z,3.3
2022-08-30T18:49:17.956Z,3.3
2022-08-30T18:54:13.903Z,3.3
2022-08-30T18:59:14.110Z,3.3
2022-08-30T19:04:22.230Z,3.3
2022-08-30T19:09:13.950Z,3.3
2022-08-30T19:14:14.956Z,3.5
2022-08-30T19:19:15.206Z,3.5
2022-08-30T19:24:17.763Z,3.6
2022-08-30T19:29:13.919Z,3.6
2022-08-30T19:34:13.908Z,3.6
2022-08-30T19:39:13.970Z,3.6
2022-08-30T19:44:13.957Z,3.6
2022-08-30T19:49:13.927Z,3.6
2022-08-30T19:54:13.930Z,3.8
2022-08-30T19:59:13.949Z,3.8
2022-08-30T20:04:13.953Z,3.8
2022-08-30T20:09:14.038Z,3.8
2022-08-30T20:14:14.983Z,3.9
2022-08-30T20:19:15.053Z,3.8
2022-08-30T20:24:14.156Z,4.5
2022-08-30T20:29:20.482Z,3.8
2022-08-30T20:34:15.064Z,3.7
2022-08-30T20:39:18.341Z,3.9
2022-08-30T20:44:16.954Z,3.7
2022-08-30T20:49:13.991Z,3.7
2022-08-30T20:54:14.024Z,3.7
2022-08-30T20:59:13.947Z,3.7
2022-08-30T21:04:14.007Z,3.7
2022-08-30T21:09:14.026Z,3.8
2022-08-30T21:14:13.971Z,3.8
2022-08-30T21:19:13.940Z,4.2
2022-08-30T21:24:13.998Z,4.3
2022-08-30T21:29:13.964Z,4.4
2022-08-30T21:34:18.054Z,4.6
2022-08-30T21:39:14.083Z,4.6
2022-08-30T21:44:14.047Z,4.6
2022-08-30T21:49:14.036Z,4.6
2022-08-30T21:54:13.981Z,4.6
2022-08-30T21:59:16.991Z,4.6
2022-08-30T22:04:14.473Z,4.6
2022-08-30T22:09:14.025Z,4.6
2022-08-30T22:14:16.558Z,4.6
2022-08-30T22:19:14.028Z,4.8
2022-08-30T22:24:14.054Z,4.9
2022-08-30T22:29:14.156Z,5.2
2022-08-30T22:34:14.023Z,5.2
2022-08-30T22:39:14.103Z,5.7
2022-08-30T22:44:14.009Z,5.8
2022-08-30T22:49:14.026Z,5.8
2022-08-30T22:59:14.088Z,5.8
2022-08-30T23:04:14.068Z,5.8
2022-08-30T23:09:14.025Z,5.8
2022-08-30T23:14:13.995Z,5.8
2022-08-30T23:19:13.999Z,5.8
2022-08-30T23:24:13.997Z,6
2022-08-30T23:29:14.048Z,6
2022-08-30T23:34:14.027Z,6.1
2022-08-30T23:39:16.607Z,6.3
2022-08-30T23:44:19.795Z,6.4
2022-08-30T23:49:14.046Z,6.4
2022-08-30T23:54:15.036Z,6.4
2022-08-30T23:59:15.000Z,6.6
